Seznam meteostanic stanic Slunecno.cz
Reklama

Seznam meteostanic a jejich METAR

Vyhledat místa podle abecedy:
A B C D E F G H I J K L M N O P Q R S T U V W X Y Z

Filtrovat:

ID stanice:
a/nebo
Název místa (fulltext):
 
Místo (ID)Naposledy načteno 
Brno - Tuřany (Brno/Tu) 24.03.2019 15:00 UTC Zobrazit data
Místo: Brno - Tuřany
Teplota: 15 °C (pocitová: 12.2 °C)
Vítr: 4 m/s z(e) 90°
Počasí: skoro zataženo
Dohlednost: 20 km
Zákl. oblačnosti: 1/8 1500 m;4/8 2100 m
Vlhkost: 51%
Červená - Opava (Cervena/uL) 24.03.2019 15:00 UTC Zobrazit data
Místo: Červená - Opava
Teplota: 7 °C (pocitová: 1.2 °C)
Vítr: 4 m/s z(e) 50°
Počasí: skoro zataženo
Dohlednost: 20 km
Zákl. oblačnosti: 7/8 1800 m
Vlhkost: 66%
České Budějovice (C.Budej/po) 24.03.2019 15:00 UTC Zobrazit data
Místo: České Budějovice
Teplota: 12 °C (pocitová: 8.7 °C)
Vítr: 3 m/s z(e) 320°
Počasí:
Dohlednost: 11 km
Zákl. oblačnosti: N/A
Vlhkost: 67%
Cheb (Cheb) 24.03.2019 15:00 UTC Zobrazit data
Místo: Cheb
Teplota: 10 °C (pocitová: 6.9 °C)
Vítr: 2 m/s z(e) 0°
Počasí: zataženo
Dohlednost: 9 km
Zákl. oblačnosti: 8/8 720 m
Vlhkost: 67%
Chotusice - Čáslav (Caslav) 24.03.2019 15:00 UTC Zobrazit data
Místo: Chotusice - Čáslav
Teplota: 10 °C (pocitová: 6 °C)
Vítr: 3 m/s z(e) 340°
Počasí: zataženo
Dohlednost: 15 km
Zákl. oblačnosti: 8/8 840 m
Vlhkost: 71%
Churáňov (Churanov) 24.03.2019 15:00 UTC Zobrazit data
Místo: Churáňov
Teplota: 7 °C (pocitová: 3.1 °C)
Vítr: 2 m/s z(e) 350°
Počasí: zataženo
Dohlednost: 3000 m
Zákl. oblačnosti: 5/8 240 m;3/8 1080 m
Vlhkost: 81%
Doksany - Litoměřice (Doksany) 24.03.2019 15:00 UTC Zobrazit data
Místo: Doksany - Litoměřice
Teplota: 11 °C (pocitová: 6.7 °C)
Vítr: 4 m/s z(e) 340°
Počasí: zataženo
Dohlednost: 30 km
Zákl. oblačnosti: 3/8 1110 m;8/8 1290 m
Vlhkost: 62%
Dukovany (Dukovany) 24.03.2019 15:00 UTC Zobrazit data
Místo: Dukovany
Teplota: 14 °C (pocitová: 10.4 °C)
Vítr: 5 m/s z(e) 290°
Počasí: oblačno
Dohlednost: 12 km
Zákl. oblačnosti: 4/8 990 m
Vlhkost: 67%
Holešov (Holesov) 24.03.2019 15:00 UTC Zobrazit data
Místo: Holešov
Teplota: 14 °C (pocitová: 10.4 °C)
Vítr: 5 m/s z(e) 30°
Počasí: skoro zataženo
Dohlednost: 27 km
Zákl. oblačnosti: 6/8 2400 m
Vlhkost: 44%
Kadaň - Tušimice (Tusimice) 24.03.2019 15:00 UTC Zobrazit data
Místo: Kadaň - Tušimice
Teplota: 10 °C (pocitová: 6.9 °C)
Vítr: 2 m/s z(e) 290°
Počasí: zataženo
Dohlednost: 13 km
Zákl. oblačnosti: 8/8 870 m
Vlhkost: 71%
Karlovy Vary (K.Vary) 24.03.2019 15:00 UTC Zobrazit data
Místo: Karlovy Vary
Teplota: 8 °C (pocitová: 4.4 °C)
Vítr: 2 m/s z(e) 360°
Počasí: zataženo
Dohlednost: 8 km
Zákl. oblačnosti: 8/8 510 m
Vlhkost: 76%
Kocelovice (Kocelovice) 24.03.2019 15:00 UTC Zobrazit data
Místo: Kocelovice
Teplota: 10 °C (pocitová: 5.3 °C)
Vítr: 4 m/s z(e) 300°
Počasí: zataženo
Dohlednost: 6 km
Zákl. oblačnosti: 7/8 600 m
Vlhkost: 71%
Kopisty (Kopisty) 24.03.2019 15:00 UTC Zobrazit data
Místo: Kopisty
Teplota: 10 °C (pocitová: 19.3 °C)
Vítr: 0 m/s z(e) 0°
Počasí: zataženo
Dohlednost: 24 km
Zákl. oblačnosti: 8/8 990 m
Vlhkost: 62%
Kostelní Myslová (K.Myslova) 24.03.2019 15:00 UTC Zobrazit data
Místo: Kostelní Myslová
Teplota: 12 °C (pocitová: 9.5 °C)
Vítr: 2 m/s z(e) 0°
Počasí: zataženo
Dohlednost: 9 km
Zákl. oblačnosti: 7/8 690 m
Vlhkost: 72%
Křešín - Kramolín (Kramolin) 24.03.2019 15:00 UTC Zobrazit data
Místo: Křešín - Kramolín
Teplota: 9 °C (pocitová: 4.7 °C)
Vítr: 3 m/s z(e) 320°
Počasí: zataženo
Dohlednost: 6 km
Zákl. oblačnosti: 8/8 450 m
Vlhkost: 82%
Kuchařovice - Znojmo (Kucharovic) 24.03.2019 15:00 UTC Zobrazit data
Místo: Kuchařovice - Znojmo
Teplota: 16 °C (pocitová: 15.3 °C)
Vítr: 1 m/s z(e) 0°
Počasí: oblačno
Dohlednost: 20 km
Zákl. oblačnosti: 3/8 1380 m
Vlhkost: 52%
Liberec (Liberec) 24.03.2019 15:00 UTC Zobrazit data
Místo: Liberec
Teplota: 8 °C (pocitová: 5.5 °C)
Vítr: 1 m/s z(e) 330°
Počasí: zataženo
Dohlednost: 25 km
Zákl. oblačnosti: 4/8 780 m;8/8 990 m
Vlhkost: 66%
Luká (Luka) 24.03.2019 15:00 UTC Zobrazit data
Místo: Luká
Teplota: 12 °C (pocitová: 9.5 °C)
Vítr: 2 m/s z(e) 350°
Počasí: skoro zataženo
Dohlednost: 18 km
Zákl. oblačnosti: 5/8 2100 m
Vlhkost: 58%
Lysá Hora (Lysa Hora) 24.03.2019 15:00 UTC Zobrazit data
Místo: Lysá Hora
Teplota: 6 °C (pocitová: 0.7 °C)
Vítr: 3 m/s z(e) 260°
Počasí: oblačno
Dohlednost: 14 km
Zákl. oblačnosti: 1/8 990 m;3/8 1800 m
Vlhkost: 66%
Milešovka (Milesovka) 24.03.2019 15:00 UTC Zobrazit data
Místo: Milešovka
Teplota: 5 °C (pocitová: -1.5 °C)
Vítr: 4 m/s z(e) 360°
Počasí: zataženo
Dohlednost: 20 km
Zákl. oblačnosti: 6/8 480 m
Vlhkost: 81%
Mošnov (Ostrava/Mo) 24.03.2019 15:00 UTC Zobrazit data
Místo: Mošnov
Teplota: 11 °C (pocitová: 6.7 °C)
Vítr: 4 m/s z(e) 360°
Počasí: skoro zataženo
Dohlednost: 18 km
Zákl. oblačnosti: 7/8 2400 m
Vlhkost: 58%
Náměšť nad Oslavou (Namest n/O) 24.03.2019 15:00 UTC Zobrazit data
Místo: Náměšť nad Oslavou
Teplota: 13 °C (pocitová: 9.4 °C)
Vítr: 4 m/s z(e) 290°
Počasí: zataženo
Dohlednost: 8 km
Zákl. oblačnosti: 6/8 1080 m
Vlhkost: 63%
Pardubice (Pardubice) 24.03.2019 15:00 UTC Zobrazit data
Místo: Pardubice
Teplota: 11 °C (pocitová: 8.2 °C)
Vítr: 2 m/s z(e) 340°
Počasí: zataženo
Dohlednost: 10 km
Zákl. oblačnosti: 8/8 930 m
Vlhkost: 62%
Pec pod Sněžkou (Pec p.Snez) 24.03.2019 15:00 UTC Zobrazit data
Místo: Pec pod Sněžkou
Teplota: 3 °C (pocitová: -0.6 °C)
Vítr: 1 m/s z(e) 200°
Počasí: přeháňky
Dohlednost: 5 km
Zákl. oblačnosti: 8/8 180 m
Vlhkost: 93%
Plzeň město - Mikulka (Plzen/Miku) 24.03.2019 15:00 UTC Zobrazit data
Místo: Plzeň město - Mikulka
Teplota: 11 °C (pocitová: 8.2 °C)
Vítr: 2 m/s z(e) 0°
Počasí: skoro zataženo
Dohlednost: 13 km
Zákl. oblačnosti: 5/8 840 m;7/8 1020 m
Vlhkost: 67%
Polom (Polom) 24.03.2019 15:00 UTC Zobrazit data
Místo: Polom
Teplota: 6 °C (pocitová: 1.8 °C)
Vítr: 2 m/s z(e) 340°
Počasí: zataženo
Dohlednost: 8 km
Zákl. oblačnosti: 8/8 450 m
Vlhkost: 81%
Praha - Karlov (Praha/Kar) 24.03.2019 15:00 UTC Zobrazit data
Místo: Praha - Karlov
Teplota: 11 °C (pocitová: 8.2 °C)
Vítr: 2 m/s z(e) 340°
Počasí: zataženo
Dohlednost: 12 km
Zákl. oblačnosti: 8/8 690 m
Vlhkost: 67%
Praha - Kbely (Praha/Kbe) 24.03.2019 15:00 UTC Zobrazit data
Místo: Praha - Kbely
Teplota: 10 °C (pocitová: 6.9 °C)
Vítr: 2 m/s z(e) 320°
Počasí: zataženo
Dohlednost: 9 km
Zákl. oblačnosti: 5/8 660 m;8/8 780 m
Vlhkost: 71%
Praha - Libuš (Praha/Lib) 24.03.2019 15:00 UTC Zobrazit data
Místo: Praha - Libuš
Teplota: 10 °C (pocitová: 8 °C)
Vítr: 1 m/s z(e) 0°
Počasí: zataženo
Dohlednost: 7 km
Zákl. oblačnosti: 8/8 570 m
Vlhkost: 71%
Praha - Ruzyně (Praha/Ru) 24.03.2019 15:00 UTC Zobrazit data
Místo: Praha - Ruzyně
Teplota: 9 °C (pocitová: 4.7 °C)
Vítr: 3 m/s z(e) 350°
Počasí: zataženo
Dohlednost: 9 km
Zákl. oblačnosti: 4/8 660 m;8/8 900 m
Vlhkost: 71%
Přibyslav (Pribyslav) 24.03.2019 15:00 UTC Zobrazit data
Místo: Přibyslav
Teplota: 10 °C (pocitová: 5.3 °C)
Vítr: 4 m/s z(e) 340°
Počasí: zataženo
Dohlednost: 5 km
Zákl. oblačnosti: 8/8 540 m
Vlhkost: 76%
Přimda (Primda) 24.03.2019 15:00 UTC Zobrazit data
Místo: Přimda
Teplota: 8 °C (pocitová: 4.4 °C)
Vítr: 2 m/s z(e) 70°
Počasí: skoro zataženo
Dohlednost: 11 km
Zákl. oblačnosti: 7/8 660 m
Vlhkost: 76%
Šerák (Serak) 24.03.2019 15:00 UTC Zobrazit data
Místo: Šerák
Teplota: 3 °C (pocitová: -2.1 °C)
Vítr: 2 m/s z(e) 250°
Počasí: skoro zataženo
Dohlednost: 13 km
Zákl. oblačnosti: 2/8 150 m;5/8 540 m
Vlhkost: 87%
Svratouch (Svratouch) 24.03.2019 15:00 UTC Zobrazit data
Místo: Svratouch
Teplota: 7 °C (pocitová: 2 °C)
Vítr: 3 m/s z(e) 350°
Počasí: zataženo
Dohlednost: 6 km
Zákl. oblačnosti: 8/8 480 m
Vlhkost: 81%
Temelín (Temelin) 24.03.2019 15:00 UTC Zobrazit data
Místo: Temelín
Teplota: 11 °C (pocitová: 6.7 °C)
Vítr: 4 m/s z(e) 280°
Počasí: zataženo
Dohlednost: 8 km
Zákl. oblačnosti: 7/8 660 m
Vlhkost: 67%
Ústí nad Labem - Kočkov (Usti n/L) 24.03.2019 15:00 UTC Zobrazit data
Místo: Ústí nad Labem - Kočkov
Teplota: 8 °C (pocitová: 2 °C)
Vítr: 5 m/s z(e) 360°
Počasí: zataženo
Dohlednost: 30 km
Zákl. oblačnosti: 1/8 690 m;8/8 840 m
Vlhkost: 71%
Ústí nad Orlicí (Usti n/O) 24.03.2019 15:00 UTC Zobrazit data
Místo: Ústí nad Orlicí
Teplota: 10 °C (pocitová: 5.3 °C)
Vítr: 4 m/s z(e) 320°
Počasí: zataženo
Dohlednost: 14 km
Zákl. oblačnosti: 8/8 900 m
Vlhkost: 71%
Aalborg (EKYT) 24.03.2019 12:50 UTC Zobrazit METAR
EKYT 241250Z AUTO 27014G25KT 240V300 9999 FEW018/// SCT026/// BKN045/// BKN060/// 08/03 Q1019
Aarhus (EKAH) 24.03.2019 10:50 UTC Zobrazit METAR
EKAH 241050Z 24008KT 190V290 9999 FEW030 10/02 Q1023
Abu Dhabi (OMAA) 24.03.2019 15:00 UTC Zobrazit METAR
OMAA 241500Z 15011KT CAVOK 34/15 Q1006 BECMG 03012KT
Abuja (DNAA) 24.03.2019 15:00 UTC Zobrazit METAR
DNAA 241500Z 23007KT 190V280 9999 FEW013 33/19 Q1009 N0SIG
Accra (DGAA) 24.03.2019 15:00 UTC Zobrazit METAR
DGAA 241500Z 19015KT CAVOK 31/25 Q1009 NOSIG
Addis Abeba (HAAB) 24.03.2019 12:00 UTC Zobrazit METAR
HAAB 241200Z 12008KT 9999 FEW030 28/03 Q1022
Agana (PGUM) 24.03.2019 14:54 UTC Zobrazit METAR
PGUM 241454Z 04011KT 10SM BKN048 26/22 A2993 RMK AO2 SLP127 T02610222 58009
Ahe Island (NTHE) Zatím nenačteno  
Akureyri (BIAR) 24.03.2019 15:00 UTC Zobrazit METAR
BIAR 241500Z 19010KT 160V230 9999 SCT050 03/M05 Q1015
Almaty (UAAA) Zatím nenačteno  
Amman (OJAM) 24.03.2019 14:00 UTC Zobrazit METAR
OJAM 241400Z 30015KT 5000 HZ SCT030 BKN080 15/02 Q1002 NOSIG
Amsterdam (EHAM) 24.03.2019 14:55 UTC Zobrazit METAR
EHAM 241455Z 28010KT 240V320 9999 FEW025 10/02 Q1027 NOSIG
Antananarivo (FMMI) 24.03.2019 10:00 UTC Zobrazit METAR
FMMI 241000Z VRB02KT 9999 SCT020 SCT023 27/18 Q1016 NOSIG
1 2 3 ... 9 Další
Reklama

Počasí na Váš email

Emaily jsou bez reklamy a bez spamu



Odhlásit newsletter

Reklama


Lunární kalendář

  • 28.03.
  • 05.04.
  • 12.04.
  • 19.04.



Reklama


Reklama
Povinné ručení
Reklama



Reklama